createdAt,value
2023-01-29T00:00:30.517Z,6.9
2023-01-29T00:01:37.223Z,6.9
2023-01-29T00:02:44.238Z,6.9
2023-01-29T00:03:51.352Z,6.9
2023-01-29T00:04:59.171Z,6.9
2023-01-29T00:06:05.494Z,6.9
2023-01-29T00:08:19.271Z,6.9
2023-01-29T00:09:26.501Z,6.9
2023-01-29T00:10:33.458Z,6.9
2023-01-29T00:11:40.614Z,6.9
2023-01-29T00:12:47.157Z,6.9
2023-01-29T00:13:54.234Z,6.9
2023-01-29T00:15:01.418Z,6.9
2023-01-29T00:16:08.455Z,6.9
2023-01-29T00:17:15.682Z,6.9
2023-01-29T00:18:22.199Z,6.9
2023-01-29T00:19:29.261Z,6.9
2023-01-29T00:20:36.466Z,6.8
2023-01-29T00:21:43.417Z,6.8
2023-01-29T00:22:50.576Z,6.8
2023-01-29T00:23:57.255Z,6.8
2023-01-29T00:25:04.526Z,6.8
2023-01-29T00:26:11.481Z,6.8
2023-01-29T00:27:18.466Z,6.8
2023-01-29T00:28:25.525Z,6.8
2023-01-29T00:29:32.188Z,6.8
2023-01-29T00:30:39.272Z,6.8
2023-01-29T00:31:46.543Z,6.8
2023-01-29T00:32:53.483Z,6.8
2023-01-29T00:34:00.537Z,6.8
2023-01-29T00:35:07.157Z,6.7
2023-01-29T00:36:14.262Z,6.7
2023-01-29T00:37:21.443Z,6.7
2023-01-29T00:38:28.490Z,6.7
2023-01-29T00:39:47.139Z,6.7
2023-01-29T00:40:42.229Z,6.7
2023-01-29T00:41:49.316Z,6.7
2023-01-29T00:42:56.457Z,6.7
2023-01-29T00:44:03.483Z,6.7
2023-01-29T00:45:10.060Z,6.7
2023-01-29T00:46:17.276Z,6.7
2023-01-29T00:47:24.270Z,6.7
2023-01-29T00:48:31.448Z,6.7
2023-01-29T00:50:45.564Z,6.7
2023-01-29T00:51:52.187Z,6.7
2023-01-29T00:54:06.422Z,6.7
2023-01-29T00:55:13.477Z,6.7
2023-01-29T00:56:20.178Z,6.7
2023-01-29T00:57:27.239Z,6.7
2023-01-29T00:58:34.512Z,6.7
2023-01-29T00:59:41.450Z,6.7
2023-01-29T01:00:48.603Z,6.7
2023-01-29T01:01:55.129Z,6.8
2023-01-29T01:03:02.286Z,6.8
2023-01-29T01:04:09.387Z,6.8
2023-01-29T01:05:16.459Z,6.8
2023-01-29T01:06:23.490Z,6.8
2023-01-29T01:07:30.390Z,6.8
2023-01-29T01:08:37.218Z,6.8
2023-01-29T01:09:44.314Z,6.8
2023-01-29T01:11:58.588Z,6.8
2023-01-29T01:13:05.109Z,6.8
2023-01-29T01:14:12.220Z,6.8
2023-01-29T01:15:19.339Z,6.8
2023-01-29T01:16:26.526Z,6.8
2023-01-29T01:17:33.590Z,6.8
2023-01-29T01:18:40.162Z,6.8
2023-01-29T01:19:47.259Z,6.8
2023-01-29T01:20:54.388Z,6.9
2023-01-29T01:22:01.492Z,6.9
2023-01-29T01:23:08.597Z,6.9
2023-01-29T01:24:15.187Z,6.8
2023-01-29T01:25:22.228Z,6.9
2023-01-29T01:26:29.918Z,6.9
2023-01-29T01:27:36.470Z,6.9
2023-01-29T01:28:43.639Z,6.9
2023-01-29T01:29:51.170Z,6.9
2023-01-29T01:30:57.378Z,6.9
2023-01-29T01:32:04.398Z,6.9
2023-01-29T01:33:11.474Z,6.9
2023-01-29T01:34:18.548Z,6.9
2023-01-29T01:35:25.118Z,6.9
2023-01-29T01:36:32.240Z,6.9
2023-01-29T01:37:39.396Z,6.9
2023-01-29T01:38:46.468Z,6.9
2023-01-29T01:39:53.534Z,6.9
2023-01-29T01:41:00.143Z,6.9
2023-01-29T01:42:07.295Z,6.9
2023-01-29T01:43:14.385Z,6.9
2023-01-29T01:44:21.520Z,6.9
2023-01-29T01:45:28.689Z,6.9
2023-01-29T01:46:35.159Z,7
2023-01-29T01:47:42.281Z,7
2023-01-29T01:48:49.388Z,7
2023-01-29T01:49:56.467Z,7
2023-01-29T01:51:03.079Z,7
2023-01-29T01:52:10.185Z,7
2023-01-29T01:53:17.305Z,7
2023-01-29T01:54:24.409Z,7
2023-01-29T01:55:31.502Z,7
2023-01-29T01:56:38.618Z,7
2023-01-29T01:57:45.161Z,7
2023-01-29T01:58:52.256Z,7
2023-01-29T01:59:59.398Z,7
2023-01-29T02:01:06.549Z,7
2023-01-29T02:02:13.669Z,7
2023-01-29T02:03:20.221Z,7.1
2023-01-29T02:04:27.285Z,7.1
2023-01-29T02:05:34.393Z,7.1
2023-01-29T02:06:41.510Z,7.1
2023-01-29T02:07:48.614Z,7.1
2023-01-29T02:08:55.175Z,7.1
2023-01-29T02:10:02.297Z,7.1
2023-01-29T02:11:09.423Z,7.1
2023-01-29T02:12:16.568Z,7.1
2023-01-29T02:13:23.569Z,7.1
2023-01-29T02:15:37.337Z,7.1
2023-01-29T02:16:44.397Z,7.1
2023-01-29T02:18:58.158Z,7.2
2023-01-29T02:20:05.200Z,7.2
2023-01-29T02:21:12.308Z,7.2
2023-01-29T02:22:19.433Z,7.2
2023-01-29T02:23:26.576Z,7.2
2023-01-29T02:24:33.160Z,7.2
2023-01-29T02:25:40.205Z,7.2
2023-01-29T02:26:47.369Z,7.2
2023-01-29T02:27:54.416Z,7.2
2023-01-29T02:29:01.553Z,7.2
2023-01-29T02:30:08.146Z,7.2
2023-01-29T02:31:15.462Z,7.2
2023-01-29T02:32:22.323Z,7.2
2023-01-29T02:33:29.473Z,7.2
2023-01-29T02:34:36.574Z,7.2
2023-01-29T02:35:43.116Z,7.2
2023-01-29T02:36:50.245Z,7.2
2023-01-29T02:37:57.374Z,7.2
2023-01-29T02:39:04.424Z,7.2
2023-01-29T02:40:11.725Z,7.2
2023-01-29T02:41:18.179Z,7.2
2023-01-29T02:42:25.267Z,7.3
2023-01-29T02:43:32.316Z,7.2
2023-01-29T02:44:39.433Z,7.2
2023-01-29T02:45:46.655Z,7.2
2023-01-29T02:46:53.131Z,7.2
2023-01-29T02:48:00.334Z,7.2
2023-01-29T02:49:07.388Z,7.2
2023-01-29T02:50:14.889Z,7.3
2023-01-29T02:51:21.584Z,7.3
2023-01-29T02:52:28.189Z,7.3
2023-01-29T02:53:35.232Z,7.3
2023-01-29T02:54:42.885Z,7.3
2023-01-29T02:55:49.449Z,7.3
2023-01-29T02:56:56.527Z,7.3
2023-01-29T02:58:03.151Z,7.3
2023-01-29T02:59:10.249Z,7.3
2023-01-29T03:00:17.693Z,7.3
2023-01-29T03:01:24.500Z,7.3
2023-01-29T03:02:31.656Z,7.3
2023-01-29T03:03:38.207Z,7.3
2023-01-29T03:04:45.277Z,7.3
2023-01-29T03:05:52.387Z,7.3
2023-01-29T03:06:59.497Z,7.3
2023-01-29T03:08:06.607Z,7.3
2023-01-29T03:09:13.189Z,7.4
2023-01-29T03:10:20.307Z,7.4
2023-01-29T03:11:27.428Z,7.4
2023-01-29T03:12:34.428Z,7.4
2023-01-29T03:13:41.587Z,7.4
2023-01-29T03:14:48.210Z,7.4
2023-01-29T03:15:55.267Z,7.4
2023-01-29T03:17:02.370Z,7.4
2023-01-29T03:19:16.766Z,7.4
2023-01-29T03:20:23.139Z,7.4
2023-01-29T03:21:30.297Z,7.4
2023-01-29T03:22:37.348Z,7.4
2023-01-29T03:23:44.496Z,7.4
2023-01-29T03:24:51.645Z,7.4
2023-01-29T03:25:58.216Z,7.4
2023-01-29T03:27:05.295Z,7.4
2023-01-29T03:28:12.402Z,7.4
2023-01-29T03:29:19.539Z,7.4
2023-01-29T03:30:26.616Z,7.4
2023-01-29T03:31:33.368Z,7.4
2023-01-29T03:32:40.331Z,7.4
2023-01-29T03:33:47.407Z,7.4
2023-01-29T03:34:54.473Z,7.5
2023-01-29T03:36:01.616Z,7.5
2023-01-29T03:37:09.305Z,7.5
2023-01-29T03:38:14.837Z,7.5
2023-01-29T03:38:15.289Z,7.5
2023-01-29T03:39:22.371Z,7.5
2023-01-29T03:40:29.637Z,7.5
2023-01-29T03:41:36.154Z,7.5
2023-01-29T03:42:43.234Z,7.5
2023-01-29T03:43:50.337Z,7.5
2023-01-29T03:44:57.579Z,7.5
2023-01-29T03:47:11.113Z,7.5
2023-01-29T03:48:18.224Z,7.5
2023-01-29T03:49:25.287Z,7.5
2023-01-29T03:50:32.459Z,7.5
2023-01-29T03:51:39.518Z,7.5
2023-01-29T03:52:46.156Z,7.5
2023-01-29T03:53:53.252Z,7.5
2023-01-29T03:55:00.337Z,7.5
2023-01-29T03:56:07.488Z,7.5
2023-01-29T03:57:14.542Z,7.5
2023-01-29T03:58:21.207Z,7.5
2023-01-29T03:59:28.224Z,7.5
2023-01-29T04:00:35.354Z,7.6
2023-01-29T04:01:42.536Z,7.6
2023-01-29T04:02:49.583Z,7.6
2023-01-29T04:03:56.205Z,7.6
2023-01-29T04:05:03.265Z,7.6
2023-01-29T04:06:10.396Z,7.6
2023-01-29T04:07:17.459Z,7.6
2023-01-29T04:08:24.557Z,7.6
2023-01-29T04:09:31.188Z,7.6
2023-01-29T04:10:38.366Z,7.6
2023-01-29T04:11:45.353Z,7.6
2023-01-29T04:12:52.455Z,7.6
2023-01-29T04:13:59.634Z,7.6
2023-01-29T04:15:06.143Z,7.6
2023-01-29T04:16:13.295Z,7.6
2023-01-29T04:17:20.355Z,7.6
2023-01-29T04:18:27.507Z,7.6
2023-01-29T04:19:34.568Z,7.6
2023-01-29T04:20:41.167Z,7.6
2023-01-29T04:22:55.936Z,7.6
2023-01-29T04:24:02.473Z,7.6
2023-01-29T04:25:09.561Z,7.6
2023-01-29T04:26:16.176Z,7.6
2023-01-29T04:27:23.371Z,7.6
2023-01-29T04:28:30.455Z,7.6
2023-01-29T04:29:37.478Z,7.6
2023-01-29T04:30:44.568Z,7.6
2023-01-29T04:31:51.195Z,7.6
2023-01-29T04:32:58.297Z,7.6
2023-01-29T04:34:05.407Z,7.6
2023-01-29T04:35:12.447Z,7.6
2023-01-29T04:36:19.627Z,7.6
2023-01-29T04:37:26.236Z,7.6
2023-01-29T04:38:33.240Z,7.6
2023-01-29T04:39:40.467Z,7.6
2023-01-29T04:40:48.051Z,7.6
2023-01-29T04:41:54.561Z,7.6
2023-01-29T04:43:01.191Z,7.6
2023-01-29T04:44:08.319Z,7.6
2023-01-29T04:45:15.398Z,7.6
2023-01-29T04:46:22.473Z,7.6
2023-01-29T04:47:29.186Z,7.6
2023-01-29T04:48:36.246Z,7.6
2023-01-29T04:49:43.297Z,7.6
2023-01-29T04:50:50.536Z,7.6
2023-01-29T04:51:57.548Z,7.6
2023-01-29T04:53:04.097Z,7.6
2023-01-29T04:54:11.187Z,7.6
2023-01-29T04:55:18.340Z,7.6
2023-01-29T04:56:25.408Z,7.6
2023-01-29T04:57:32.577Z,7.6
2023-01-29T04:58:39.135Z,7.6
2023-01-29T04:59:46.204Z,7.6
2023-01-29T05:00:53.340Z,7.6
2023-01-29T05:02:00.469Z,7.6
2023-01-29T05:03:07.537Z,7.6
2023-01-29T05:04:14.135Z,7.6
2023-01-29T05:05:21.281Z,7.6
2023-01-29T05:06:28.348Z,7.6
2023-01-29T05:07:35.429Z,7.6
2023-01-29T05:08:42.633Z,7.6
2023-01-29T05:09:49.140Z,7.6
2023-01-29T05:10:56.227Z,7.6
2023-01-29T05:12:03.347Z,7.6
2023-01-29T05:13:10.477Z,7.6
2023-01-29T05:14:17.586Z,7.6
2023-01-29T05:15:24.146Z,7.6
2023-01-29T05:16:31.258Z,7.6
2023-01-29T05:17:38.342Z,7.6
2023-01-29T05:18:44.939Z,7.7
2023-01-29T05:19:52.507Z,7.6
2023-01-29T05:20:59.148Z,7.7
2023-01-29T05:22:06.264Z,7.7
2023-01-29T05:23:13.350Z,7.7
2023-01-29T05:24:20.523Z,7.6
2023-01-29T05:25:27.546Z,7.6
2023-01-29T05:26:34.326Z,7.6
2023-01-29T05:27:41.275Z,7.7
2023-01-29T05:28:48.350Z,7.6
2023-01-29T05:29:55.431Z,7.7
2023-01-29T05:31:02.647Z,7.7
2023-01-29T05:32:09.190Z,7.7
2023-01-29T05:33:16.280Z,7.7
2023-01-29T05:34:23.337Z,7.7
2023-01-29T05:35:30.487Z,7.7
2023-01-29T05:36:37.606Z,7.7
2023-01-29T05:37:44.138Z,7.8
2023-01-29T05:38:51.260Z,7.8
2023-01-29T05:39:58.396Z,7.8
2023-01-29T05:41:05.436Z,7.8
2023-01-29T05:42:12.594Z,7.8
2023-01-29T05:43:19.194Z,7.8
2023-01-29T05:44:26.860Z,7.8
2023-01-29T05:45:33.416Z,7.8
2023-01-29T05:46:40.551Z,7.8
2023-01-29T05:47:47.666Z,7.8
2023-01-29T05:48:54.152Z,7.8
2023-01-29T05:50:01.288Z,7.8
2023-01-29T05:51:08.403Z,7.8
2023-01-29T05:52:15.497Z,7.8
2023-01-29T05:53:22.640Z,7.8
2023-01-29T05:54:29.198Z,7.9
2023-01-29T05:55:36.340Z,7.9
2023-01-29T05:56:43.404Z,7.9
2023-01-29T05:57:50.494Z,7.9
2023-01-29T05:58:57.621Z,7.9
2023-01-29T06:00:04.187Z,7.9
2023-01-29T06:01:11.314Z,7.9
2023-01-29T06:02:18.461Z,7.9
2023-01-29T06:03:25.501Z,7.9
2023-01-29T06:04:32.207Z,8
2023-01-29T06:05:39.280Z,8
2023-01-29T06:06:46.298Z,8
2023-01-29T06:07:53.410Z,8
2023-01-29T06:09:00.487Z,8
2023-01-29T06:10:07.127Z,8
2023-01-29T06:11:14.227Z,8
2023-01-29T06:12:21.342Z,8
2023-01-29T06:13:28.474Z,8
2023-01-29T06:14:35.487Z,8
2023-01-29T06:15:42.100Z,8
2023-01-29T06:16:49.268Z,8
2023-01-29T06:17:56.346Z,8.1
2023-01-29T06:19:03.376Z,8.1
2023-01-29T06:20:11.887Z,8.1
2023-01-29T06:21:19.760Z,8.1
2023-01-29T06:22:24.281Z,8.1
2023-01-29T06:23:31.348Z,8.2
2023-01-29T06:24:38.484Z,8.2
2023-01-29T06:25:45.593Z,8.2
2023-01-29T06:26:52.157Z,8.2
2023-01-29T06:27:59.643Z,8.2
2023-01-29T06:30:13.402Z,8.2
2023-01-29T06:31:36.841Z,8.2
2023-01-29T06:32:27.134Z,8.2
2023-01-29T06:33:34.277Z,8.2
2023-01-29T06:34:41.324Z,8.2
2023-01-29T06:35:48.432Z,8.2
2023-01-29T06:36:55.537Z,8.2
2023-01-29T06:38:02.160Z,8.2
2023-01-29T06:39:09.267Z,8.2
2023-01-29T06:40:16.694Z,8.2
2023-01-29T06:41:22.936Z,8.2
2023-01-29T06:42:30.584Z,8.2
2023-01-29T06:43:37.159Z,8.2
2023-01-29T06:44:44.209Z,8.2
2023-01-29T06:45:51.421Z,8.2
2023-01-29T06:46:58.469Z,8.2
2023-01-29T06:48:06.124Z,8.2
2023-01-29T06:49:12.209Z,8.2
2023-01-29T06:50:19.566Z,8.2
2023-01-29T06:51:26.391Z,8.2
2023-01-29T06:52:33.469Z,8.2
2023-01-29T06:53:40.581Z,8.2
2023-01-29T06:54:47.197Z,8.2
2023-01-29T06:55:54.271Z,8.2
2023-01-29T06:57:01.371Z,8.2
2023-01-29T06:58:08.497Z,8.2
2023-01-29T06:59:15.557Z,8.3
2023-01-29T07:00:22.175Z,8.3
2023-01-29T07:01:36.115Z,8.3
2023-01-29T07:02:36.398Z,8.3
2023-01-29T07:03:43.480Z,8.3
2023-01-29T07:04:50.627Z,8.3
2023-01-29T07:05:57.166Z,8.3
2023-01-29T07:07:04.240Z,8.4
2023-01-29T07:08:11.397Z,8.4
2023-01-29T07:09:18.477Z,8.4
2023-01-29T07:10:25.574Z,8.4
2023-01-29T07:11:32.218Z,8.4
2023-01-29T07:12:39.301Z,8.4
2023-01-29T07:13:46.451Z,8.4
2023-01-29T07:14:53.453Z,8.4
2023-01-29T07:16:00.709Z,8.4
2023-01-29T07:17:07.218Z,8.4
2023-01-29T07:18:14.302Z,8.4
2023-01-29T07:19:21.388Z,8.4
2023-01-29T07:20:28.562Z,8.4
2023-01-29T07:21:35.079Z,8.4
2023-01-29T07:22:42.222Z,8.4
2023-01-29T07:22:42.231Z,8.4
2023-01-29T07:23:49.338Z,8.4
2023-01-29T07:24:56.387Z,8.4
2023-01-29T07:26:03.466Z,8.4
2023-01-29T07:27:10.158Z,8.5
2023-01-29T07:28:17.226Z,8.5
2023-01-29T07:29:24.307Z,8.5
2023-01-29T07:30:31.486Z,8.5
2023-01-29T07:31:38.782Z,8.5
2023-01-29T07:33:52.262Z,8.5
2023-01-29T07:34:59.347Z,8.5
2023-01-29T07:36:06.393Z,8.5
2023-01-29T07:37:13.489Z,8.5
2023-01-29T07:38:20.149Z,8.5
2023-01-29T07:39:27.277Z,8.5
2023-01-29T07:40:34.338Z,8.5
2023-01-29T07:41:41.457Z,8.5
2023-01-29T07:42:48.561Z,8.5
2023-01-29T07:43:55.187Z,8.5
2023-01-29T07:45:02.237Z,8.5
2023-01-29T07:46:09.399Z,8.5
2023-01-29T07:47:17.308Z,8.5
2023-01-29T07:48:23.574Z,8.5
2023-01-29T07:49:30.252Z,8.5
2023-01-29T07:50:37.256Z,8.5
2023-01-29T07:51:44.856Z,8.5
2023-01-29T07:52:51.473Z,8.5
2023-01-29T07:53:58.588Z,8.5
2023-01-29T07:55:05.153Z,8.5
2023-01-29T07:56:12.267Z,8.5
2023-01-29T07:57:19.397Z,8.5
2023-01-29T07:58:26.516Z,8.5
2023-01-29T07:59:33.580Z,8.5
2023-01-29T08:00:40.174Z,8.5
2023-01-29T08:01:47.216Z,8.5
2023-01-29T08:02:54.328Z,8.5
2023-01-29T08:04:00.920Z,8.5
2023-01-29T08:05:08.585Z,8.6
2023-01-29T08:06:15.166Z,8.5
2023-01-29T08:07:22.276Z,8.5
2023-01-29T08:08:29.468Z,8.5
2023-01-29T08:09:36.519Z,8.5
2023-01-29T08:10:43.548Z,8.5
2023-01-29T08:11:50.188Z,8.5
2023-01-29T08:12:57.388Z,8.5
2023-01-29T08:14:04.460Z,8.5
2023-01-29T08:15:11.467Z,8.5
2023-01-29T08:16:18.592Z,8.5
2023-01-29T08:17:25.170Z,8.5
2023-01-29T08:18:32.336Z,8.5
2023-01-29T08:19:39.365Z,8.5
2023-01-29T08:20:46.496Z,8.6
2023-01-29T08:21:53.542Z,8.6
2023-01-29T08:23:00.209Z,8.6
2023-01-29T08:24:07.316Z,8.6
2023-01-29T08:25:14.406Z,8.6
2023-01-29T08:26:21.521Z,8.6
2023-01-29T08:27:28.576Z,8.6
2023-01-29T08:28:35.256Z,8.7
2023-01-29T08:29:42.407Z,8.7
2023-01-29T08:30:49.511Z,8.7
2023-01-29T08:31:56.577Z,8.7
2023-01-29T08:33:03.631Z,8.7
2023-01-29T08:34:10.230Z,8.7
2023-01-29T08:35:17.727Z,8.7
2023-01-29T08:37:31.530Z,8.7
2023-01-29T08:38:38.607Z,8.7
2023-01-29T08:39:45.235Z,8.7
2023-01-29T08:40:52.331Z,8.7
2023-01-29T08:41:59.427Z,8.7
2023-01-29T08:43:08.757Z,8.7
2023-01-29T08:44:13.609Z,8.7
2023-01-29T08:45:20.200Z,8.7
2023-01-29T08:46:27.349Z,8.7
2023-01-29T08:48:41.550Z,8.7
2023-01-29T08:49:48.195Z,8.7
2023-01-29T08:50:55.175Z,8.7
2023-01-29T08:52:03.207Z,8.7
2023-01-29T08:53:09.441Z,8.7
2023-01-29T08:54:16.572Z,8.8
2023-01-29T08:55:24.142Z,8.8
2023-01-29T08:56:30.261Z,8.7
2023-01-29T08:57:37.374Z,8.8
2023-01-29T08:58:44.471Z,8.7
2023-01-29T08:59:51.559Z,8.7
2023-01-29T09:00:58.212Z,8.7
2023-01-29T09:02:05.236Z,8.7
2023-01-29T09:03:12.296Z,8.7
2023-01-29T09:04:19.403Z,8.8
2023-01-29T09:05:26.574Z,8.7
2023-01-29T09:06:33.127Z,8.7
2023-01-29T09:07:40.271Z,8.8
2023-01-29T09:08:47.371Z,8.8
2023-01-29T09:09:54.459Z,8.9
2023-01-29T09:11:01.564Z,8.9
2023-01-29T09:12:08.145Z,8.9
2023-01-29T09:13:15.205Z,8.9
2023-01-29T09:14:22.418Z,9
2023-01-29T09:15:29.470Z,9
2023-01-29T09:16:36.599Z,9
2023-01-29T09:17:43.121Z,9.1
2023-01-29T09:18:50.248Z,9.1
2023-01-29T09:19:57.378Z,9.1
2023-01-29T09:21:04.416Z,9.1
2023-01-29T09:22:12.014Z,9.1
2023-01-29T09:23:18.233Z,9.1
2023-01-29T09:24:25.263Z,9.1
2023-01-29T09:25:32.402Z,9.2
2023-01-29T09:26:39.565Z,9.2
2023-01-29T09:27:46.600Z,9.2
2023-01-29T09:28:53.186Z,9.2
2023-01-29T09:30:00.257Z,9.2
2023-01-29T09:31:07.488Z,9.3
2023-01-29T09:32:15.571Z,9.3
2023-01-29T09:33:21.640Z,9.3
2023-01-29T09:34:28.177Z,9.3
2023-01-29T09:35:35.232Z,9.3
2023-01-29T09:36:42.418Z,9.3
2023-01-29T09:37:49.484Z,9.3
2023-01-29T09:38:56.585Z,9.3
2023-01-29T09:41:10.302Z,9.3
2023-01-29T09:42:17.385Z,9.3
2023-01-29T09:43:24.551Z,9.3
2023-01-29T09:44:31.647Z,9.3
2023-01-29T09:45:38.207Z,9.3
2023-01-29T09:46:45.307Z,9.3
2023-01-29T09:47:52.498Z,9.3
2023-01-29T09:48:59.528Z,9.3
2023-01-29T09:50:06.631Z,9.3
2023-01-29T09:51:13.205Z,9.3
2023-01-29T09:52:20.291Z,9.3
2023-01-29T09:53:27.459Z,9.3
2023-01-29T09:54:34.480Z,9.3
2023-01-29T09:55:41.611Z,9.3
2023-01-29T09:56:48.239Z,9.3
2023-01-29T09:57:55.297Z,9.3
2023-01-29T09:59:02.983Z,9.3
2023-01-29T10:00:12.010Z,9.3
2023-01-29T10:01:16.782Z,9.3
2023-01-29T10:02:23.289Z,9.3
2023-01-29T10:03:30.370Z,9.2
2023-01-29T10:04:37.519Z,9.3
2023-01-29T10:05:44.499Z,9.3
2023-01-29T10:06:51.119Z,9.3
2023-01-29T10:07:58.263Z,9.2
2023-01-29T10:09:05.370Z,9.3
2023-01-29T10:10:12.453Z,9.3
2023-01-29T10:11:19.561Z,9.3
2023-01-29T10:12:26.132Z,9.3
2023-01-29T10:13:33.180Z,9.3
2023-01-29T10:14:40.347Z,9.3
2023-01-29T10:16:54.548Z,9.3
2023-01-29T10:18:01.110Z,9.3
2023-01-29T10:19:08.257Z,9.3
2023-01-29T10:20:15.359Z,9.3
2023-01-29T10:21:22.427Z,9.3
2023-01-29T10:22:29.570Z,9.3
2023-01-29T10:23:36.188Z,9.3
2023-01-29T10:24:43.205Z,9.2
2023-01-29T10:25:50.375Z,9.3
2023-01-29T10:26:57.505Z,9.2
2023-01-29T10:28:04.650Z,9.3
2023-01-29T10:29:12.854Z,9.3
2023-01-29T10:30:18.237Z,9.3
2023-01-29T10:31:25.480Z,9.2
2023-01-29T10:32:32.417Z,9.2
2023-01-29T10:33:49.323Z,9.2
2023-01-29T10:34:46.180Z,9.2
2023-01-29T10:35:55.311Z,9.2
2023-01-29T10:37:00.404Z,9.2
2023-01-29T10:38:07.496Z,9.2
2023-01-29T10:39:14.593Z,9.2
2023-01-29T10:40:21.139Z,9.2
2023-01-29T10:41:28.326Z,9.2
2023-01-29T10:42:35.327Z,9.2
2023-01-29T10:44:49.589Z,9.2
2023-01-29T10:45:56.153Z,9.2
2023-01-29T10:47:03.315Z,9.1
2023-01-29T10:48:10.402Z,9.2
2023-01-29T10:49:16.959Z,9.1
2023-01-29T10:49:17.459Z,9.1
2023-01-29T10:50:24.590Z,9.1
2023-01-29T10:51:31.192Z,9.1
2023-01-29T10:52:38.298Z,9.1
2023-01-29T10:53:45.374Z,9.1
2023-01-29T10:54:52.500Z,9.1
2023-01-29T10:56:00.356Z,9.1
2023-01-29T10:57:06.190Z,9.1
2023-01-29T10:58:13.299Z,9.1
2023-01-29T10:59:20.417Z,9.1
2023-01-29T11:00:27.483Z,9.1
2023-01-29T11:01:34.645Z,9.1
2023-01-29T11:02:41.828Z,9.1
2023-01-29T11:03:48.334Z,9.1
2023-01-29T11:04:55.361Z,9.1
2023-01-29T11:06:02.481Z,9.1
2023-01-29T11:07:09.570Z,9.1
2023-01-29T11:08:16.268Z,9.1
2023-01-29T11:09:23.335Z,9.1
2023-01-29T11:10:30.381Z,9.1
2023-01-29T11:11:37.545Z,9.1
2023-01-29T11:12:44.104Z,9.1
2023-01-29T11:13:51.283Z,9.1
2023-01-29T11:14:58.320Z,9.1
2023-01-29T11:16:05.377Z,9.1
2023-01-29T11:17:12.566Z,9.1
2023-01-29T11:18:19.166Z,9.1
2023-01-29T11:19:26.240Z,9.1
2023-01-29T11:20:33.334Z,9.1
2023-01-29T11:21:40.428Z,9.1
2023-01-29T11:22:47.545Z,9.1
2023-01-29T11:23:54.116Z,9.1
2023-01-29T11:25:01.191Z,9.1
2023-01-29T11:26:08.327Z,9.1
2023-01-29T11:27:15.444Z,9.1
2023-01-29T11:28:22.488Z,9.1
2023-01-29T11:29:29.190Z,9.1
2023-01-29T11:30:36.329Z,9.1
2023-01-29T11:31:43.412Z,9.1
2023-01-29T11:32:50.453Z,9.1
2023-01-29T11:33:57.588Z,9.1
2023-01-29T11:35:04.215Z,9.1
2023-01-29T11:36:11.263Z,9.1
2023-01-29T11:37:18.430Z,9.1
2023-01-29T11:38:25.475Z,9.1
2023-01-29T11:39:32.523Z,9.1
2023-01-29T11:40:39.130Z,9.1
2023-01-29T11:41:46.279Z,9.1
2023-01-29T11:42:53.328Z,9.1
2023-01-29T11:45:07.575Z,9.1
2023-01-29T11:46:14.184Z,9.1
2023-01-29T11:48:28.368Z,9.1
2023-01-29T11:49:35.486Z,9.1
2023-01-29T11:50:42.568Z,9.1
2023-01-29T11:51:49.178Z,9.1
2023-01-29T11:52:56.279Z,9.1
2023-01-29T11:54:03.354Z,9.1
2023-01-29T11:55:10.489Z,9.1
2023-01-29T11:56:17.598Z,9.1
2023-01-29T11:57:24.169Z,9.1
2023-01-29T11:58:31.262Z,9.1
2023-01-29T11:59:38.377Z,9.1
2023-01-29T12:00:45.439Z,9.1
2023-01-29T12:01:52.568Z,9
2023-01-29T12:02:59.178Z,8.9
2023-01-29T12:04:06.320Z,8.9
2023-01-29T12:05:13.337Z,8.8
2023-01-29T12:06:21.034Z,8.8
2023-01-29T12:07:27.602Z,8.8
2023-01-29T12:08:34.228Z,8.7
2023-01-29T12:09:41.316Z,8.6
2023-01-29T12:10:48.424Z,8.6
2023-01-29T12:11:55.010Z,8.6
2023-01-29T12:13:02.597Z,8.5
2023-01-29T12:14:09.170Z,8.5
2023-01-29T12:15:16.350Z,8.4
2023-01-29T12:16:23.474Z,8.1
2023-01-29T12:17:30.508Z,7.9
2023-01-29T12:18:37.629Z,7.8
2023-01-29T12:19:44.185Z,7.7
2023-01-29T12:20:51.284Z,7.7
2023-01-29T12:21:58.419Z,7.6
2023-01-29T12:23:05.564Z,7.6
2023-01-29T12:24:12.076Z,7.6
2023-01-29T12:25:19.272Z,7.6
2023-01-29T12:26:26.364Z,7.6
2023-01-29T12:27:33.435Z,7.6
2023-01-29T12:28:40.505Z,7.5
2023-01-29T12:29:47.129Z,7.5
2023-01-29T12:30:54.207Z,7.6
2023-01-29T12:32:01.290Z,7.6
2023-01-29T12:33:08.476Z,7.6
2023-01-29T12:34:15.518Z,7.6
2023-01-29T12:35:22.137Z,7.6
2023-01-29T12:36:29.227Z,7.6
2023-01-29T12:37:36.340Z,7.6
2023-01-29T12:38:43.417Z,7.7
2023-01-29T12:39:50.542Z,7.7
2023-01-29T12:40:57.149Z,7.7
2023-01-29T12:42:04.229Z,7.7
2023-01-29T12:43:11.313Z,7.7
2023-01-29T12:44:18.504Z,7.7
2023-01-29T12:45:25.541Z,7.7
2023-01-29T12:46:32.157Z,7.7
2023-01-29T12:47:39.264Z,7.7
2023-01-29T12:48:46.350Z,7.8
2023-01-29T12:49:53.393Z,7.8
2023-01-29T12:52:07.138Z,7.8
2023-01-29T12:53:14.240Z,7.8
2023-01-29T12:54:21.405Z,7.8
2023-01-29T12:55:28.443Z,7.8
2023-01-29T12:56:35.545Z,7.8
2023-01-29T12:57:42.166Z,7.8
2023-01-29T12:58:49.298Z,7.8
2023-01-29T12:59:56.376Z,7.7
2023-01-29T13:01:03.506Z,7.7
2023-01-29T13:02:10.579Z,7.7
2023-01-29T13:03:17.760Z,7.7
2023-01-29T13:04:24.252Z,7.6
2023-01-29T13:05:31.345Z,7.6
2023-01-29T13:06:38.482Z,7.6
2023-01-29T13:07:45.552Z,7.6
2023-01-29T13:08:52.152Z,7.5
2023-01-29T13:09:59.818Z,7.5
2023-01-29T13:11:06.391Z,7.5
2023-01-29T13:13:20.597Z,7.6
2023-01-29T13:14:27.154Z,7.6
2023-01-29T13:15:34.249Z,7.6
2023-01-29T13:16:41.503Z,7.6
2023-01-29T13:17:48.518Z,7.6
2023-01-29T13:18:55.573Z,7.6
2023-01-29T13:20:02.237Z,7.7
2023-01-29T13:21:09.295Z,7.7
2023-01-29T13:22:16.398Z,7.6
2023-01-29T13:23:23.478Z,7.6
2023-01-29T13:24:30.604Z,7.6
2023-01-29T13:25:37.277Z,7.6
2023-01-29T13:26:44.385Z,7.6
2023-01-29T13:27:51.373Z,7.6
2023-01-29T13:28:58.478Z,7.6
2023-01-29T13:30:05.552Z,7.6
2023-01-29T13:31:12.167Z,7.7
2023-01-29T13:32:19.326Z,7.7
2023-01-29T13:33:26.429Z,7.7
2023-01-29T13:34:33.495Z,7.7
2023-01-29T13:35:40.622Z,7.7
2023-01-29T13:36:47.170Z,7.6
2023-01-29T13:37:54.326Z,7.6
2023-01-29T13:39:01.428Z,7.6
2023-01-29T13:40:08.628Z,7.6
2023-01-29T13:41:15.619Z,7.6
2023-01-29T13:42:22.229Z,7.6
2023-01-29T13:43:29.409Z,7.6
2023-01-29T13:44:36.432Z,7.6
2023-01-29T13:45:43.575Z,7.5
2023-01-29T13:46:50.649Z,7.5
2023-01-29T13:47:57.229Z,7.6
2023-01-29T13:49:04.301Z,7.6
2023-01-29T13:50:11.974Z,7.6
2023-01-29T13:51:18.509Z,7.6
2023-01-29T13:52:25.091Z,7.6
2023-01-29T13:53:32.247Z,7.6
2023-01-29T13:55:46.471Z,7.5
2023-01-29T13:56:53.491Z,7.5
2023-01-29T13:58:00.142Z,7.5
2023-01-29T13:59:07.214Z,7.5
2023-01-29T14:00:14.293Z,7.5
2023-01-29T14:01:21.501Z,7.5
2023-01-29T14:02:28.666Z,7.5
2023-01-29T14:03:56.083Z,7.6
2023-01-29T14:04:42.256Z,7.6
2023-01-29T14:05:49.345Z,7.6
2023-01-29T14:06:56.482Z,7.5
2023-01-29T14:08:03.503Z,7.6
2023-01-29T14:09:10.128Z,7.6
2023-01-29T14:10:17.283Z,7.6
2023-01-29T14:11:24.298Z,7.6
2023-01-29T14:12:31.510Z,7.6
2023-01-29T14:13:39.100Z,7.6
2023-01-29T14:14:45.141Z,7.6
2023-01-29T14:15:52.244Z,7.6
2023-01-29T14:15:52.262Z,7.6
2023-01-29T14:16:59.301Z,7.6
2023-01-29T14:18:06.448Z,7.6
2023-01-29T14:19:13.563Z,7.5
2023-01-29T14:20:20.164Z,7.5
2023-01-29T14:21:27.260Z,7.5
2023-01-29T14:22:34.892Z,7.5
2023-01-29T14:23:41.760Z,7.5
2023-01-29T14:24:48.607Z,7.5
2023-01-29T14:25:55.155Z,7.5
2023-01-29T14:27:02.288Z,7.5
2023-01-29T14:28:10.391Z,7.5
2023-01-29T14:29:21.346Z,7.5
2023-01-29T14:30:23.546Z,7.5
2023-01-29T14:31:30.287Z,7.5
2023-01-29T14:32:37.241Z,7.5
2023-01-29T14:33:44.758Z,7.5
2023-01-29T14:34:51.467Z,7.5
2023-01-29T14:35:58.567Z,7.5
2023-01-29T14:37:05.120Z,7.5
2023-01-29T14:38:12.316Z,7.5
2023-01-29T14:39:19.439Z,7.5
2023-01-29T14:41:33.553Z,7.6
2023-01-29T14:42:40.219Z,7.6
2023-01-29T14:43:47.261Z,7.6
2023-01-29T14:44:54.402Z,7.6
2023-01-29T14:46:01.554Z,7.5
2023-01-29T14:47:08.583Z,7.5
2023-01-29T14:48:15.193Z,7.4
2023-01-29T14:49:22.309Z,7.4
2023-01-29T14:50:29.424Z,7.4
2023-01-29T14:51:36.541Z,7.3
2023-01-29T14:52:43.056Z,7.2
2023-01-29T14:53:50.177Z,7.2
2023-01-29T14:54:57.284Z,7.2
2023-01-29T14:56:04.389Z,7.2
2023-01-29T14:59:25.377Z,7.1
2023-01-29T15:00:32.261Z,7.1
2023-01-29T15:01:39.437Z,7.1
2023-01-29T15:02:46.602Z,7.1
2023-01-29T15:03:53.070Z,7.1
2023-01-29T15:05:00.216Z,7.1
2023-01-29T15:06:07.359Z,7.1
2023-01-29T15:07:14.404Z,7.1
2023-01-29T15:08:21.553Z,7.1
2023-01-29T15:09:35.942Z,7.1
2023-01-29T15:10:35.182Z,7.1
2023-01-29T15:11:42.281Z,7.1
2023-01-29T15:12:49.417Z,7.1
2023-01-29T15:13:56.572Z,7.1
2023-01-29T15:15:03.121Z,7.2
2023-01-29T15:16:10.347Z,7.2
2023-01-29T15:17:18.397Z,7.2
2023-01-29T15:18:24.381Z,7.2
2023-01-29T15:19:31.633Z,7.2
2023-01-29T15:20:38.143Z,7.1
2023-01-29T15:21:45.192Z,7.1
2023-01-29T15:22:52.286Z,7.1
2023-01-29T15:23:59.477Z,7.1
2023-01-29T15:25:06.571Z,7.1
2023-01-29T15:26:13.631Z,7.1
2023-01-29T15:27:20.252Z,7.1
2023-01-29T15:28:27.333Z,7.1
2023-01-29T15:29:34.481Z,7
2023-01-29T15:30:41.709Z,7.1
2023-01-29T15:31:48.249Z,7.1
2023-01-29T15:32:55.258Z,7.1
2023-01-29T15:34:02.325Z,7.1
2023-01-29T15:35:09.438Z,7.1
2023-01-29T15:36:16.619Z,7.1
2023-01-29T15:37:23.104Z,7.2
2023-01-29T15:38:30.302Z,7.2
2023-01-29T15:39:37.383Z,7.2
2023-01-29T15:40:44.464Z,7.2
2023-01-29T15:41:51.599Z,7.2
2023-01-29T15:42:58.168Z,7.1
2023-01-29T15:44:05.278Z,7.1
2023-01-29T15:45:12.354Z,7.1
2023-01-29T15:46:19.524Z,7
2023-01-29T15:47:26.686Z,7